Terminal Aerodrome Forecast
Issued by NWS Cleveland, OH

Home | Current Version | Previous Version | Text Only | Print | Product List | Glossary Off
Versions: 1 2 3 4 5 6 7 8 9 10 11 12 13 14 15 16 17 18 19 20

600
FTUS41 KCLE 230523
TAFMFD
TAF
KMFD 230523Z 2306/2406 18011KT 6SM BR SCT007 BKN035
      TEMPO 2306/2310 4SM BR BKN007
     FM231000 20010KT 4SM BR BKN020
      TEMPO 2310/2314 2SM BR BKN007
     FM231600 22010KT 6SM HZ BKN025
     FM232100 25008KT P6SM OVC035
     FM240000 05006KT 5SM BR OVC025
     FM240400 11006KT 2SM -RA BR OVC012=

USA.gov is the U.S. government's official web portal to all federal, state and local government web resources and services.